sensor_id;sensor_type;location;lat;lon;timestamp;P1;durP1;ratioP1;P2;durP2;ratioP2
43706;SDS011;61348;53.392;-6.248;2022-11-20T00:01:26;13.38;;;3.53;;
43706;SDS011;61348;53.392;-6.248;2022-11-20T00:03:54;11.23;;;3.00;;
43706;SDS011;61348;53.392;-6.248;2022-11-20T00:06:22;15.73;;;3.30;;
43706;SDS011;61348;53.392;-6.248;2022-11-20T00:08:50;15.30;;;3.35;;
43706;SDS011;61348;53.392;-6.248;2022-11-20T00:11:18;11.48;;;4.22;;
43706;SDS011;61348;53.392;-6.248;2022-11-20T00:13:48;15.02;;;4.18;;
43706;SDS011;61348;53.392;-6.248;2022-11-20T00:16:19;13.50;;;3.47;;
43706;SDS011;61348;53.392;-6.248;2022-11-20T00:18:47;12.18;;;3.33;;
43706;SDS011;61348;53.392;-6.248;2022-11-20T00:21:24;13.20;;;3.78;;
43706;SDS011;61348;53.392;-6.248;2022-11-20T00:23:53;9.55;;;3.22;;
43706;SDS011;61348;53.392;-6.248;2022-11-20T00:26:22;18.45;;;4.60;;
43706;SDS011;61348;53.392;-6.248;2022-11-20T00:28:51;12.95;;;3.78;;
43706;SDS011;61348;53.392;-6.248;2022-11-20T00:31:19;11.82;;;3.90;;
43706;SDS011;61348;53.392;-6.248;2022-11-20T00:33:46;13.30;;;4.05;;
43706;SDS011;61348;53.392;-6.248;2022-11-20T00:36:14;16.05;;;4.60;;
43706;SDS011;61348;53.392;-6.248;2022-11-20T00:38:47;12.48;;;3.38;;
43706;SDS011;61348;53.392;-6.248;2022-11-20T00:41:18;19.40;;;4.05;;
43706;SDS011;61348;53.392;-6.248;2022-11-20T00:43:44;12.73;;;5.25;;
43706;SDS011;61348;53.392;-6.248;2022-11-20T00:48:43;19.52;;;3.70;;
43706;SDS011;61348;53.392;-6.248;2022-11-20T00:51:12;17.08;;;3.70;;
43706;SDS011;61348;53.392;-6.248;2022-11-20T00:53:40;13.65;;;3.53;;
43706;SDS011;61348;53.392;-6.248;2022-11-20T00:56:07;16.48;;;4.53;;
43706;SDS011;61348;53.392;-6.248;2022-11-20T00:58:37;15.10;;;4.15;;
43706;SDS011;61348;53.392;-6.248;2022-11-20T01:01:07;19.17;;;3.78;;
43706;SDS011;61348;53.392;-6.248;2022-11-20T01:03:40;15.43;;;3.60;;
43706;SDS011;61348;53.392;-6.248;2022-11-20T01:06:24;18.20;;;3.50;;
43706;SDS011;61348;53.392;-6.248;2022-11-20T01:09:05;14.23;;;3.92;;
43706;SDS011;61348;53.392;-6.248;2022-11-20T01:11:41;14.73;;;3.45;;
43706;SDS011;61348;53.392;-6.248;2022-11-20T01:14:10;23.27;;;4.15;;
43706;SDS011;61348;53.392;-6.248;2022-11-20T01:19:11;19.08;;;5.13;;
43706;SDS011;61348;53.392;-6.248;2022-11-20T01:21:44;15.80;;;3.85;;
43706;SDS011;61348;53.392;-6.248;2022-11-20T01:24:12;18.33;;;5.30;;
43706;SDS011;61348;53.392;-6.248;2022-11-20T01:26:41;16.27;;;3.63;;
43706;SDS011;61348;53.392;-6.248;2022-11-20T01:29:12;21.48;;;5.28;;
43706;SDS011;61348;53.392;-6.248;2022-11-20T01:31:41;21.77;;;4.80;;
43706;SDS011;61348;53.392;-6.248;2022-11-20T01:34:10;19.08;;;4.47;;
43706;SDS011;61348;53.392;-6.248;2022-11-20T01:36:39;15.23;;;3.90;;
43706;SDS011;61348;53.392;-6.248;2022-11-20T01:39:07;20.52;;;3.85;;
43706;SDS011;61348;53.392;-6.248;2022-11-20T01:47:49;21.48;;;4.32;;
43706;SDS011;61348;53.392;-6.248;2022-11-20T01:50:17;19.85;;;4.13;;
43706;SDS011;61348;53.392;-6.248;2022-11-20T01:52:54;28.48;;;3.63;;
43706;SDS011;61348;53.392;-6.248;2022-11-20T01:55:27;23.10;;;4.93;;
43706;SDS011;61348;53.392;-6.248;2022-11-20T01:57:57;27.70;;;5.40;;
43706;SDS011;61348;53.392;-6.248;2022-11-20T02:00:25;17.33;;;3.50;;
43706;SDS011;61348;53.392;-6.248;2022-11-20T02:03:00;16.08;;;5.28;;
43706;SDS011;61348;53.392;-6.248;2022-11-20T02:08:10;18.52;;;4.40;;
43706;SDS011;61348;53.392;-6.248;2022-11-20T02:10:38;24.85;;;4.32;;
43706;SDS011;61348;53.392;-6.248;2022-11-20T02:13:05;28.45;;;4.63;;
43706;SDS011;61348;53.392;-6.248;2022-11-20T02:15:52;27.83;;;5.53;;
43706;SDS011;61348;53.392;-6.248;2022-11-20T02:18:20;22.58;;;4.35;;
43706;SDS011;61348;53.392;-6.248;2022-11-20T02:20:49;18.77;;;4.57;;
43706;SDS011;61348;53.392;-6.248;2022-11-20T02:26:24;20.83;;;4.18;;
43706;SDS011;61348;53.392;-6.248;2022-11-20T02:28:54;32.28;;;6.93;;
43706;SDS011;61348;53.392;-6.248;2022-11-20T02:31:21;23.20;;;4.45;;
43706;SDS011;61348;53.392;-6.248;2022-11-20T02:33:53;28.38;;;4.18;;
43706;SDS011;61348;53.392;-6.248;2022-11-20T02:36:21;23.58;;;4.60;;
43706;SDS011;61348;53.392;-6.248;2022-11-20T02:38:48;22.42;;;4.35;;
43706;SDS011;61348;53.392;-6.248;2022-11-20T02:41:16;25.20;;;6.20;;
43706;SDS011;61348;53.392;-6.248;2022-11-20T02:43:43;30.13;;;5.15;;
43706;SDS011;61348;53.392;-6.248;2022-11-20T02:46:09;25.98;;;4.22;;
43706;SDS011;61348;53.392;-6.248;2022-11-20T02:48:36;25.30;;;4.43;;
43706;SDS011;61348;53.392;-6.248;2022-11-20T02:51:03;26.05;;;4.88;;
43706;SDS011;61348;53.392;-6.248;2022-11-20T02:53:30;26.05;;;5.78;;
43706;SDS011;61348;53.392;-6.248;2022-11-20T02:55:56;27.35;;;6.18;;
43706;SDS011;61348;53.392;-6.248;2022-11-20T02:58:23;20.80;;;3.80;;
43706;SDS011;61348;53.392;-6.248;2022-11-20T03:00:50;14.00;;;4.75;;
43706;SDS011;61348;53.392;-6.248;2022-11-20T03:03:18;20.88;;;4.30;;
43706;SDS011;61348;53.392;-6.248;2022-11-20T03:05:45;16.35;;;4.65;;
43706;SDS011;61348;53.392;-6.248;2022-11-20T03:08:12;23.90;;;5.70;;
43706;SDS011;61348;53.392;-6.248;2022-11-20T03:10:38;22.17;;;4.05;;
43706;SDS011;61348;53.392;-6.248;2022-11-20T03:13:06;16.35;;;3.92;;
43706;SDS011;61348;53.392;-6.248;2022-11-20T03:15:35;21.75;;;4.85;;
43706;SDS011;61348;53.392;-6.248;2022-11-20T03:18:03;19.80;;;4.22;;
43706;SDS011;61348;53.392;-6.248;2022-11-20T03:20:30;14.45;;;3.95;;
43706;SDS011;61348;53.392;-6.248;2022-11-20T03:22:59;22.08;;;4.43;;
43706;SDS011;61348;53.392;-6.248;2022-11-20T03:25:26;17.75;;;3.13;;
43706;SDS011;61348;53.392;-6.248;2022-11-20T03:27:53;16.17;;;3.55;;
43706;SDS011;61348;53.392;-6.248;2022-11-20T03:30:20;15.82;;;3.15;;
43706;SDS011;61348;53.392;-6.248;2022-11-20T03:32:55;15.15;;;3.38;;
43706;SDS011;61348;53.392;-6.248;2022-11-20T03:35:22;17.60;;;3.72;;
43706;SDS011;61348;53.392;-6.248;2022-11-20T03:37:49;18.25;;;4.30;;
43706;SDS011;61348;53.392;-6.248;2022-11-20T03:40:15;22.88;;;5.40;;
43706;SDS011;61348;53.392;-6.248;2022-11-20T03:42:42;14.23;;;3.53;;
43706;SDS011;61348;53.392;-6.248;2022-11-20T03:45:15;18.00;;;3.50;;
43706;SDS011;61348;53.392;-6.248;2022-11-20T03:47:44;23.80;;;3.63;;
43706;SDS011;61348;53.392;-6.248;2022-11-20T03:50:12;15.38;;;3.15;;
43706;SDS011;61348;53.392;-6.248;2022-11-20T03:52:40;17.58;;;3.33;;
43706;SDS011;61348;53.392;-6.248;2022-11-20T03:55:07;17.42;;;3.17;;
43706;SDS011;61348;53.392;-6.248;2022-11-20T03:57:35;22.48;;;7.03;;
43706;SDS011;61348;53.392;-6.248;2022-11-20T04:00:02;16.10;;;3.15;;
43706;SDS011;61348;53.392;-6.248;2022-11-20T04:02:30;9.85;;;2.85;;
43706;SDS011;61348;53.392;-6.248;2022-11-20T04:04:57;15.65;;;3.03;;
43706;SDS011;61348;53.392;-6.248;2022-11-20T04:07:24;15.95;;;2.80;;
43706;SDS011;61348;53.392;-6.248;2022-11-20T04:09:50;12.93;;;2.45;;
43706;SDS011;61348;53.392;-6.248;2022-11-20T04:12:17;7.55;;;3.42;;
43706;SDS011;61348;53.392;-6.248;2022-11-20T04:14:44;13.43;;;1.70;;
43706;SDS011;61348;53.392;-6.248;2022-11-20T04:17:11;17.38;;;3.08;;
43706;SDS011;61348;53.392;-6.248;2022-11-20T04:19:37;18.92;;;3.03;;
43706;SDS011;61348;53.392;-6.248;2022-11-20T04:22:04;12.02;;;2.60;;
43706;SDS011;61348;53.392;-6.248;2022-11-20T04:24:31;13.55;;;2.85;;
43706;SDS011;61348;53.392;-6.248;2022-11-20T04:26:58;13.60;;;2.55;;
43706;SDS011;61348;53.392;-6.248;2022-11-20T04:29:24;20.58;;;2.33;;
43706;SDS011;61348;53.392;-6.248;2022-11-20T04:31:51;11.10;;;2.60;;
43706;SDS011;61348;53.392;-6.248;2022-11-20T04:34:18;11.27;;;3.40;;
43706;SDS011;61348;53.392;-6.248;2022-11-20T04:36:45;12.23;;;2.28;;
43706;SDS011;61348;53.392;-6.248;2022-11-20T04:39:12;13.93;;;2.85;;
43706;SDS011;61348;53.392;-6.248;2022-11-20T04:41:44;15.30;;;2.55;;
43706;SDS011;61348;53.392;-6.248;2022-11-20T04:44:11;7.93;;;2.72;;
43706;SDS011;61348;53.392;-6.248;2022-11-20T04:46:39;10.98;;;2.33;;
43706;SDS011;61348;53.392;-6.248;2022-11-20T04:49:07;15.70;;;2.42;;
43706;SDS011;61348;53.392;-6.248;2022-11-20T04:51:37;11.15;;;2.65;;
43706;SDS011;61348;53.392;-6.248;2022-11-20T04:54:04;26.27;;;4.15;;
43706;SDS011;61348;53.392;-6.248;2022-11-20T04:56:30;17.60;;;3.92;;
43706;SDS011;61348;53.392;-6.248;2022-11-20T04:58:59;23.30;;;3.47;;
43706;SDS011;61348;53.392;-6.248;2022-11-20T05:01:27;19.90;;;4.95;;
43706;SDS011;61348;53.392;-6.248;2022-11-20T05:03:54;26.42;;;4.13;;
43706;SDS011;61348;53.392;-6.248;2022-11-20T05:06:21;20.63;;;3.40;;
43706;SDS011;61348;53.392;-6.248;2022-11-20T05:08:49;27.75;;;4.53;;
43706;SDS011;61348;53.392;-6.248;2022-11-20T05:11:17;23.05;;;4.95;;
43706;SDS011;61348;53.392;-6.248;2022-11-20T05:13:46;16.15;;;3.03;;
43706;SDS011;61348;53.392;-6.248;2022-11-20T05:16:18;17.73;;;3.25;;
43706;SDS011;61348;53.392;-6.248;2022-11-20T05:18:46;25.55;;;4.15;;
43706;SDS011;61348;53.392;-6.248;2022-11-20T05:21:14;22.55;;;4.03;;
43706;SDS011;61348;53.392;-6.248;2022-11-20T05:23:41;10.52;;;2.53;;
43706;SDS011;61348;53.392;-6.248;2022-11-20T05:26:18;11.23;;;3.47;;
43706;SDS011;61348;53.392;-6.248;2022-11-20T05:28:48;21.60;;;3.72;;
43706;SDS011;61348;53.392;-6.248;2022-11-20T05:31:20;18.02;;;3.33;;
43706;SDS011;61348;53.392;-6.248;2022-11-20T05:33:53;13.73;;;3.03;;
43706;SDS011;61348;53.392;-6.248;2022-11-20T05:36:21;26.00;;;3.70;;
43706;SDS011;61348;53.392;-6.248;2022-11-20T05:38:48;21.67;;;4.05;;
43706;SDS011;61348;53.392;-6.248;2022-11-20T05:41:18;14.65;;;2.55;;
43706;SDS011;61348;53.392;-6.248;2022-11-20T05:43:46;19.90;;;4.72;;
43706;SDS011;61348;53.392;-6.248;2022-11-20T05:46:15;15.80;;;2.75;;
43706;SDS011;61348;53.392;-6.248;2022-11-20T05:48:45;15.68;;;2.92;;
43706;SDS011;61348;53.392;-6.248;2022-11-20T05:51:14;22.05;;;3.38;;
43706;SDS011;61348;53.392;-6.248;2022-11-20T05:53:43;13.88;;;2.70;;
43706;SDS011;61348;53.392;-6.248;2022-11-20T05:56:18;15.48;;;3.67;;
43706;SDS011;61348;53.392;-6.248;2022-11-20T05:58:46;8.00;;;2.33;;
43706;SDS011;61348;53.392;-6.248;2022-11-20T06:03:42;14.90;;;3.13;;
43706;SDS011;61348;53.392;-6.248;2022-11-20T06:06:12;16.65;;;2.08;;
43706;SDS011;61348;53.392;-6.248;2022-11-20T06:08:43;9.48;;;2.13;;
43706;SDS011;61348;53.392;-6.248;2022-11-20T06:11:12;7.65;;;2.75;;
43706;SDS011;61348;53.392;-6.248;2022-11-20T06:13:40;16.88;;;3.22;;
43706;SDS011;61348;53.392;-6.248;2022-11-20T06:16:08;9.88;;;2.22;;
43706;SDS011;61348;53.392;-6.248;2022-11-20T06:18:36;17.08;;;3.70;;
43706;SDS011;61348;53.392;-6.248;2022-11-20T06:21:04;11.13;;;2.08;;
43706;SDS011;61348;53.392;-6.248;2022-11-20T06:23:33;12.23;;;2.55;;
43706;SDS011;61348;53.392;-6.248;2022-11-20T06:26:01;8.20;;;1.98;;
43706;SDS011;61348;53.392;-6.248;2022-11-20T06:28:30;6.35;;;2.00;;
43706;SDS011;61348;53.392;-6.248;2022-11-20T06:30:57;15.50;;;1.88;;
43706;SDS011;61348;53.392;-6.248;2022-11-20T06:33:24;14.32;;;3.03;;
43706;SDS011;61348;53.392;-6.248;2022-11-20T06:35:51;10.75;;;2.30;;
43706;SDS011;61348;53.392;-6.248;2022-11-20T06:38:26;17.83;;;2.60;;
43706;SDS011;61348;53.392;-6.248;2022-11-20T06:40:54;9.00;;;1.85;;
43706;SDS011;61348;53.392;-6.248;2022-11-20T06:43:21;14.00;;;2.35;;
43706;SDS011;61348;53.392;-6.248;2022-11-20T06:45:55;12.43;;;2.50;;
43706;SDS011;61348;53.392;-6.248;2022-11-20T06:48:24;11.90;;;1.63;;
43706;SDS011;61348;53.392;-6.248;2022-11-20T06:50:55;11.75;;;1.52;;
43706;SDS011;61348;53.392;-6.248;2022-11-20T06:53:23;9.27;;;2.00;;
43706;SDS011;61348;53.392;-6.248;2022-11-20T06:55:50;22.55;;;4.72;;
43706;SDS011;61348;53.392;-6.248;2022-11-20T06:58:17;14.07;;;1.83;;
43706;SDS011;61348;53.392;-6.248;2022-11-20T07:00:44;21.50;;;2.63;;
43706;SDS011;61348;53.392;-6.248;2022-11-20T07:03:11;18.02;;;3.75;;
43706;SDS011;61348;53.392;-6.248;2022-11-20T07:05:38;11.73;;;1.73;;
43706;SDS011;61348;53.392;-6.248;2022-11-20T07:08:06;16.98;;;2.80;;
43706;SDS011;61348;53.392;-6.248;2022-11-20T07:10:33;11.27;;;2.15;;
43706;SDS011;61348;53.392;-6.248;2022-11-20T07:13:00;10.02;;;2.40;;
43706;SDS011;61348;53.392;-6.248;2022-11-20T07:15:27;15.55;;;2.30;;
43706;SDS011;61348;53.392;-6.248;2022-11-20T07:17:53;11.18;;;3.75;;
43706;SDS011;61348;53.392;-6.248;2022-11-20T07:20:20;11.55;;;2.33;;
43706;SDS011;61348;53.392;-6.248;2022-11-20T07:22:52;9.05;;;1.90;;
43706;SDS011;61348;53.392;-6.248;2022-11-20T07:25:23;12.70;;;1.83;;
43706;SDS011;61348;53.392;-6.248;2022-11-20T07:27:51;9.00;;;2.05;;
43706;SDS011;61348;53.392;-6.248;2022-11-20T07:30:18;5.07;;;1.50;;
43706;SDS011;61348;53.392;-6.248;2022-11-20T07:32:51;14.18;;;2.13;;
43706;SDS011;61348;53.392;-6.248;2022-11-20T07:35:19;10.55;;;1.92;;
43706;SDS011;61348;53.392;-6.248;2022-11-20T07:37:46;13.50;;;2.40;;
43706;SDS011;61348;53.392;-6.248;2022-11-20T07:40:15;8.63;;;2.97;;
43706;SDS011;61348;53.392;-6.248;2022-11-20T07:42:49;14.27;;;2.53;;
43706;SDS011;61348;53.392;-6.248;2022-11-20T07:45:18;12.68;;;1.88;;
43706;SDS011;61348;53.392;-6.248;2022-11-20T07:47:45;13.00;;;2.95;;
43706;SDS011;61348;53.392;-6.248;2022-11-20T07:50:12;10.00;;;2.28;;
43706;SDS011;61348;53.392;-6.248;2022-11-20T07:52:39;13.75;;;3.22;;
43706;SDS011;61348;53.392;-6.248;2022-11-20T07:55:07;19.77;;;4.20;;
43706;SDS011;61348;53.392;-6.248;2022-11-20T07:57:34;9.50;;;2.15;;
43706;SDS011;61348;53.392;-6.248;2022-11-20T08:00:02;14.90;;;2.60;;
43706;SDS011;61348;53.392;-6.248;2022-11-20T08:02:30;18.80;;;3.65;;
43706;SDS011;61348;53.392;-6.248;2022-11-20T08:04:57;18.50;;;4.03;;
43706;SDS011;61348;53.392;-6.248;2022-11-20T08:07:24;10.27;;;2.63;;
43706;SDS011;61348;53.392;-6.248;2022-11-20T08:09:51;14.52;;;3.42;;
43706;SDS011;61348;53.392;-6.248;2022-11-20T08:12:18;25.63;;;3.78;;
43706;SDS011;61348;53.392;-6.248;2022-11-20T08:15:04;22.70;;;3.80;;
43706;SDS011;61348;53.392;-6.248;2022-11-20T08:17:38;10.50;;;3.42;;
43706;SDS011;61348;53.392;-6.248;2022-11-20T08:20:04;17.08;;;3.55;;
43706;SDS011;61348;53.392;-6.248;2022-11-20T08:22:31;15.52;;;3.13;;
43706;SDS011;61348;53.392;-6.248;2022-11-20T08:24:58;17.35;;;3.55;;
43706;SDS011;61348;53.392;-6.248;2022-11-20T08:27:25;18.15;;;2.90;;
43706;SDS011;61348;53.392;-6.248;2022-11-20T08:29:52;13.68;;;2.70;;
43706;SDS011;61348;53.392;-6.248;2022-11-20T08:32:19;18.70;;;4.90;;
43706;SDS011;61348;53.392;-6.248;2022-11-20T08:34:46;22.25;;;3.75;;
43706;SDS011;61348;53.392;-6.248;2022-11-20T08:37:13;14.90;;;2.72;;
43706;SDS011;61348;53.392;-6.248;2022-11-20T08:39:40;14.50;;;3.40;;
43706;SDS011;61348;53.392;-6.248;2022-11-20T08:42:07;18.15;;;3.03;;
43706;SDS011;61348;53.392;-6.248;2022-11-20T08:44:34;10.38;;;2.20;;
43706;SDS011;61348;53.392;-6.248;2022-11-20T08:47:01;13.75;;;3.50;;
43706;SDS011;61348;53.392;-6.248;2022-11-20T08:49:28;18.13;;;4.35;;
43706;SDS011;61348;53.392;-6.248;2022-11-20T08:51:54;14.80;;;3.00;;
43706;SDS011;61348;53.392;-6.248;2022-11-20T08:54:21;17.48;;;3.70;;
43706;SDS011;61348;53.392;-6.248;2022-11-20T08:56:48;17.77;;;3.53;;
43706;SDS011;61348;53.392;-6.248;2022-11-20T08:59:15;15.40;;;2.30;;
43706;SDS011;61348;53.392;-6.248;2022-11-20T09:02:02;16.35;;;2.65;;
43706;SDS011;61348;53.392;-6.248;2022-11-20T09:04:29;20.35;;;2.72;;
43706;SDS011;61348;53.392;-6.248;2022-11-20T09:06:56;13.00;;;2.58;;
43706;SDS011;61348;53.392;-6.248;2022-11-20T09:09:23;13.73;;;2.97;;
43706;SDS011;61348;53.392;-6.248;2022-11-20T09:11:50;16.30;;;2.88;;
43706;SDS011;61348;53.392;-6.248;2022-11-20T09:14:17;10.50;;;2.70;;
43706;SDS011;61348;53.392;-6.248;2022-11-20T09:16:44;11.90;;;2.88;;
43706;SDS011;61348;53.392;-6.248;2022-11-20T09:19:12;9.02;;;2.92;;
43706;SDS011;61348;53.392;-6.248;2022-11-20T09:21:59;15.18;;;2.08;;
43706;SDS011;61348;53.392;-6.248;2022-11-20T09:24:26;9.02;;;1.90;;
43706;SDS011;61348;53.392;-6.248;2022-11-20T09:26:54;6.85;;;1.55;;
43706;SDS011;61348;53.392;-6.248;2022-11-20T09:29:20;7.75;;;1.40;;
43706;SDS011;61348;53.392;-6.248;2022-11-20T09:31:49;8.25;;;2.25;;
43706;SDS011;61348;53.392;-6.248;2022-11-20T09:34:15;7.97;;;1.45;;
43706;SDS011;61348;53.392;-6.248;2022-11-20T09:36:42;12.82;;;2.25;;
43706;SDS011;61348;53.392;-6.248;2022-11-20T09:39:09;10.88;;;2.60;;
43706;SDS011;61348;53.392;-6.248;2022-11-20T09:41:40;8.55;;;2.65;;
43706;SDS011;61348;53.392;-6.248;2022-11-20T09:47:12;3.92;;;1.40;;
43706;SDS011;61348;53.392;-6.248;2022-11-20T09:50:07;9.88;;;1.85;;
43706;SDS011;61348;53.392;-6.248;2022-11-20T09:53:04;8.88;;;2.30;;
43706;SDS011;61348;53.392;-6.248;2022-11-20T09:55:39;10.23;;;1.80;;
43706;SDS011;61348;53.392;-6.248;2022-11-20T09:58:06;10.10;;;1.58;;
43706;SDS011;61348;53.392;-6.248;2022-11-20T10:00:39;7.45;;;1.17;;
43706;SDS011;61348;53.392;-6.248;2022-11-20T10:05:44;7.13;;;1.20;;
43706;SDS011;61348;53.392;-6.248;2022-11-20T10:08:17;7.97;;;1.50;;
43706;SDS011;61348;53.392;-6.248;2022-11-20T10:11:00;3.83;;;1.05;;
43706;SDS011;61348;53.392;-6.248;2022-11-20T10:13:35;11.93;;;3.58;;
43706;SDS011;61348;53.392;-6.248;2022-11-20T10:16:16;13.88;;;1.80;;
43706;SDS011;61348;53.392;-6.248;2022-11-20T10:19:13;5.82;;;1.45;;
43706;SDS011;61348;53.392;-6.248;2022-11-20T10:22:28;4.68;;;0.82;;
43706;SDS011;61348;53.392;-6.248;2022-11-20T10:30:15;4.45;;;0.90;;
43706;SDS011;61348;53.392;-6.248;2022-11-20T10:32:48;5.10;;;1.45;;
43706;SDS011;61348;53.392;-6.248;2022-11-20T10:35:39;6.88;;;1.40;;
43706;SDS011;61348;53.392;-6.248;2022-11-20T10:38:54;9.73;;;1.80;;
43706;SDS011;61348;53.392;-6.248;2022-11-20T10:41:06;13.38;;;1.75;;
43706;SDS011;61348;53.392;-6.248;2022-11-20T10:43:52;4.13;;;0.98;;
43706;SDS011;61348;53.392;-6.248;2022-11-20T10:46:29;6.93;;;1.17;;
43706;SDS011;61348;53.392;-6.248;2022-11-20T10:49:04;4.78;;;1.77;;
43706;SDS011;61348;53.392;-6.248;2022-11-20T10:57:13;5.78;;;1.13;;
43706;SDS011;61348;53.392;-6.248;2022-11-20T11:02:22;5.53;;;1.88;;
43706;SDS011;61348;53.392;-6.248;2022-11-20T11:04:51;2.78;;;0.50;;
43706;SDS011;61348;53.392;-6.248;2022-11-20T11:07:33;5.40;;;0.50;;
43706;SDS011;61348;53.392;-6.248;2022-11-20T11:10:20;2.08;;;0.70;;
43706;SDS011;61348;53.392;-6.248;2022-11-20T11:13:07;1.10;;;0.40;;
43706;SDS011;61348;53.392;-6.248;2022-11-20T11:15:46;3.97;;;0.88;;
43706;SDS011;61348;53.392;-6.248;2022-11-20T11:18:22;2.00;;;1.45;;
43706;SDS011;61348;53.392;-6.248;2022-11-20T11:20:53;3.05;;;0.65;;
43706;SDS011;61348;53.392;-6.248;2022-11-20T11:26:04;1.75;;;0.52;;
43706;SDS011;61348;53.392;-6.248;2022-11-20T11:28:32;2.00;;;0.60;;
43706;SDS011;61348;53.392;-6.248;2022-11-20T11:30:59;1.00;;;0.30;;
43706;SDS011;61348;53.392;-6.248;2022-11-20T11:33:27;1.13;;;0.40;;
43706;SDS011;61348;53.392;-6.248;2022-11-20T11:35:56;3.47;;;1.17;;
43706;SDS011;61348;53.392;-6.248;2022-11-20T11:40:57;2.15;;;0.30;;
43706;SDS011;61348;53.392;-6.248;2022-11-20T11:43:26;0.30;;;0.10;;
43706;SDS011;61348;53.392;-6.248;2022-11-20T11:46:25;0.95;;;0.10;;
43706;SDS011;61348;53.392;-6.248;2022-11-20T11:48:58;2.35;;;0.90;;
43706;SDS011;61348;53.392;-6.248;2022-11-20T11:54:23;0.20;;;0.20;;
43706;SDS011;61348;53.392;-6.248;2022-11-20T11:59:27;0.80;;;0.30;;
43706;SDS011;61348;53.392;-6.248;2022-11-20T12:05:19;1.70;;;0.60;;
43706;SDS011;61348;53.392;-6.248;2022-11-20T12:07:55;0.75;;;0.35;;
43706;SDS011;61348;53.392;-6.248;2022-11-20T12:15:51;2.00;;;0.70;;
43706;SDS011;61348;53.392;-6.248;2022-11-20T12:18:18;1.95;;;1.33;;
43706;SDS011;61348;53.392;-6.248;2022-11-20T12:20:52;1.63;;;0.60;;
43706;SDS011;61348;53.392;-6.248;2022-11-20T12:23:36;2.70;;;0.68;;
43706;SDS011;61348;53.392;-6.248;2022-11-20T12:26:38;1.80;;;1.42;;
43706;SDS011;61348;53.392;-6.248;2022-11-20T12:43:19;1.27;;;0.60;;
43706;SDS011;61348;53.392;-6.248;2022-11-20T12:52:21;2.55;;;0.82;;
43706;SDS011;61348;53.392;-6.248;2022-11-20T12:55:13;5.90;;;0.80;;
43706;SDS011;61348;53.392;-6.248;2022-11-20T13:00:31;2.97;;;1.10;;
43706;SDS011;61348;53.392;-6.248;2022-11-20T13:06:10;2.40;;;0.80;;
43706;SDS011;61348;53.392;-6.248;2022-11-20T13:08:43;7.63;;;1.50;;
43706;SDS011;61348;53.392;-6.248;2022-11-20T13:19:11;5.47;;;2.80;;
43706;SDS011;61348;53.392;-6.248;2022-11-20T13:21:40;4.07;;;1.55;;
43706;SDS011;61348;53.392;-6.248;2022-11-20T13:24:30;2.67;;;1.17;;
43706;SDS011;61348;53.392;-6.248;2022-11-20T13:29:35;5.43;;;1.13;;
43706;SDS011;61348;53.392;-6.248;2022-11-20T13:32:06;3.60;;;1.00;;
43706;SDS011;61348;53.392;-6.248;2022-11-20T13:37:33;3.28;;;1.00;;
43706;SDS011;61348;53.392;-6.248;2022-11-20T13:42:32;2.08;;;0.90;;
43706;SDS011;61348;53.392;-6.248;2022-11-20T13:45:08;3.15;;;1.33;;
43706;SDS011;61348;53.392;-6.248;2022-11-20T13:47:37;5.75;;;1.33;;
43706;SDS011;61348;53.392;-6.248;2022-11-20T13:50:14;3.83;;;1.35;;
43706;SDS011;61348;53.392;-6.248;2022-11-20T13:52:55;2.90;;;1.50;;
43706;SDS011;61348;53.392;-6.248;2022-11-20T14:01:21;5.60;;;1.33;;
43706;SDS011;61348;53.392;-6.248;2022-11-20T14:03:51;5.93;;;1.60;;
43706;SDS011;61348;53.392;-6.248;2022-11-20T14:06:41;2.75;;;1.15;;
43706;SDS011;61348;53.392;-6.248;2022-11-20T14:09:10;3.75;;;1.27;;
43706;SDS011;61348;53.392;-6.248;2022-11-20T14:11:58;6.53;;;1.20;;
43706;SDS011;61348;53.392;-6.248;2022-11-20T14:14:26;4.03;;;1.33;;
43706;SDS011;61348;53.392;-6.248;2022-11-20T14:17:07;2.58;;;1.30;;
43706;SDS011;61348;53.392;-6.248;2022-11-20T14:19:48;5.85;;;1.13;;
43706;SDS011;61348;53.392;-6.248;2022-11-20T14:24:45;5.60;;;1.88;;
43706;SDS011;61348;53.392;-6.248;2022-11-20T14:27:17;6.50;;;2.70;;
43706;SDS011;61348;53.392;-6.248;2022-11-20T14:29:46;7.97;;;2.00;;
43706;SDS011;61348;53.392;-6.248;2022-11-20T14:32:16;6.13;;;1.27;;
43706;SDS011;61348;53.392;-6.248;2022-11-20T14:34:45;4.13;;;1.80;;
43706;SDS011;61348;53.392;-6.248;2022-11-20T14:37:20;7.20;;;1.20;;
43706;SDS011;61348;53.392;-6.248;2022-11-20T14:39:50;6.38;;;1.23;;
43706;SDS011;61348;53.392;-6.248;2022-11-20T14:42:26;5.18;;;1.85;;
43706;SDS011;61348;53.392;-6.248;2022-11-20T14:44:57;7.07;;;1.33;;
43706;SDS011;61348;53.392;-6.248;2022-11-20T14:47:27;1.90;;;1.60;;
43706;SDS011;61348;53.392;-6.248;2022-11-20T14:49:56;3.75;;;1.10;;
43706;SDS011;61348;53.392;-6.248;2022-11-20T14:52:25;6.32;;;2.40;;
43706;SDS011;61348;53.392;-6.248;2022-11-20T14:54:54;7.63;;;2.58;;
43706;SDS011;61348;53.392;-6.248;2022-11-20T14:57:29;8.20;;;3.22;;
43706;SDS011;61348;53.392;-6.248;2022-11-20T15:02:43;11.20;;;2.83;;
43706;SDS011;61348;53.392;-6.248;2022-11-20T15:05:12;6.80;;;2.20;;
43706;SDS011;61348;53.392;-6.248;2022-11-20T15:07:41;9.13;;;2.55;;
43706;SDS011;61348;53.392;-6.248;2022-11-20T15:12:46;5.50;;;2.50;;
43706;SDS011;61348;53.392;-6.248;2022-11-20T15:18:16;7.30;;;2.47;;
43706;SDS011;61348;53.392;-6.248;2022-11-20T15:20:45;14.93;;;4.05;;
43706;SDS011;61348;53.392;-6.248;2022-11-20T15:23:15;8.95;;;3.15;;
43706;SDS011;61348;53.392;-6.248;2022-11-20T15:25:45;6.30;;;2.20;;
43706;SDS011;61348;53.392;-6.248;2022-11-20T15:28:27;3.75;;;1.55;;
43706;SDS011;61348;53.392;-6.248;2022-11-20T15:30:58;7.20;;;2.70;;
43706;SDS011;61348;53.392;-6.248;2022-11-20T15:33:25;7.07;;;2.42;;
43706;SDS011;61348;53.392;-6.248;2022-11-20T15:35:52;8.32;;;2.42;;
43706;SDS011;61348;53.392;-6.248;2022-11-20T15:38:19;3.33;;;1.60;;
43706;SDS011;61348;53.392;-6.248;2022-11-20T15:40:48;6.97;;;1.90;;
43706;SDS011;61348;53.392;-6.248;2022-11-20T15:43:15;3.80;;;1.65;;
43706;SDS011;61348;53.392;-6.248;2022-11-20T15:45:45;4.50;;;1.95;;
43706;SDS011;61348;53.392;-6.248;2022-11-20T15:48:16;4.72;;;1.85;;
43706;SDS011;61348;53.392;-6.248;2022-11-20T15:50:47;5.63;;;1.90;;
43706;SDS011;61348;53.392;-6.248;2022-11-20T15:53:19;5.45;;;2.60;;
43706;SDS011;61348;53.392;-6.248;2022-11-20T15:55:45;5.53;;;2.25;;
43706;SDS011;61348;53.392;-6.248;2022-11-20T15:58:12;4.05;;;2.28;;
43706;SDS011;61348;53.392;-6.248;2022-11-20T16:00:39;4.80;;;2.03;;
43706;SDS011;61348;53.392;-6.248;2022-11-20T16:03:08;3.28;;;2.03;;
43706;SDS011;61348;53.392;-6.248;2022-11-20T16:05:37;5.05;;;1.67;;
43706;SDS011;61348;53.392;-6.248;2022-11-20T16:08:04;6.88;;;2.15;;
43706;SDS011;61348;53.392;-6.248;2022-11-20T16:10:36;5.05;;;2.00;;
43706;SDS011;61348;53.392;-6.248;2022-11-20T16:13:04;3.42;;;1.98;;
43706;SDS011;61348;53.392;-6.248;2022-11-20T16:15:55;4.78;;;1.95;;
43706;SDS011;61348;53.392;-6.248;2022-11-20T16:18:23;8.93;;;3.15;;
43706;SDS011;61348;53.392;-6.248;2022-11-20T16:20:52;4.75;;;2.50;;
43706;SDS011;61348;53.392;-6.248;2022-11-20T16:23:21;7.75;;;2.72;;
43706;SDS011;61348;53.392;-6.248;2022-11-20T16:25:48;7.05;;;2.72;;
43706;SDS011;61348;53.392;-6.248;2022-11-20T16:28:17;5.97;;;2.30;;
43706;SDS011;61348;53.392;-6.248;2022-11-20T16:30:45;4.68;;;2.53;;
43706;SDS011;61348;53.392;-6.248;2022-11-20T16:33:13;5.82;;;2.22;;
43706;SDS011;61348;53.392;-6.248;2022-11-20T16:35:44;6.93;;;2.17;;
43706;SDS011;61348;53.392;-6.248;2022-11-20T16:38:11;6.70;;;2.20;;
43706;SDS011;61348;53.392;-6.248;2022-11-20T16:40:38;5.35;;;2.30;;
43706;SDS011;61348;53.392;-6.248;2022-11-20T16:43:09;9.35;;;1.80;;